Carversville, PA (18913)

11:03 AM EDT on May 27, 2017 (GMT -0400)
Middleton Lane | | Change Station

Elev 338 ft 40.39 °N, 75.04 °W | Updated 1 day ago

Mostly Cloudy
Mostly Cloudy
--
Feels Like --
N
1.0
Wind Variable Wind from SE
Gusts 7.0 mph

Today
High -- | Low -- °F
--% Chance of Precip.
Yesterday
High -- | Low -- °F
Precip. -- in
Pressure 29.88 in
Visibility 10.0 miles
Clouds Mostly Cloudy 3200 ft
Dew Point Not available.
Humidity Not available.
Rainfall in
Snow Depth Not available.
5:34 AM 8:20 PM
Waxing Crescent, 5% visible
METAR KDYL 271454Z AUTO 36004KT 10SM BKN032 22/13 A2988 RMK AO2 SLP117 T02170133 58000
Pressure 29.88 in
Visibility 10.0 miles
Clouds Mostly Cloudy 3200 ft
Dew Point Not available.
Humidity Not available.
Rainfall in
Snow Depth Not available.
5:34 AM 8:20 PM
Waxing Crescent, 5% visible
METAR KDYL 271454Z AUTO 36004KT 10SM BKN032 22/13 A2988 RMK AO2 SLP117 T02170133 58000

Get Severe Weather Alerts

Thanks for signing up!

Be on the lookout for a verification email in your inbox.

You'll start receiving the daily forecast at 6 AM.

×

10-Day Weather Forecast

Almanac

Astronomy

May. 27, 2017 Rise Set
Actual Time
Civil Twilight
Nautical Twilight
Astronomical Twilight
Moon
Length of Visible Light
Length of Day
Tomorrow will be .
, % of the Moon is Illuminated

Today's Extremes

State Highs State Lows

Community

WunderPhotos

Category 6

Welcome to Category 6. This is the collective home for Weather Underground's featured writeups by Dr. Jeff Masters (right), Bob Henson (left), Chris Burt, and other regular contributors.

Nearby

Air Quality

  Air Quality AQ Index Pollutant
Not available.

Snow Depth

Station Depth Elevation

Earthquake Activity

City Distance Mag. Time & Date
Minimum magnitude displayed is 2.5.

Coastal Water Temperatures

Place Temperature

Stations

Nearby Weather Stations

Station Location Temp. Windchill Dew Point Humidity Wind Precip. Elev Updated Type
                   

Watches & Warnings

There are currently no watches in effect.